Time;durP1;ratioP1;P1;durP2;ratioP2;P2;SDS_P1;SDS_P2;PMS_P1;PMS_P2;Temp;Humidity;BMP_temperature;BMP_pressure;BME280_temperature;BME280_humidity;BME280_pressure;Samples;Min_cycle;Max_cycle;Signal;HPM_P1;HPM_P2
2022/07/17 00:02:06;;;;;;;2.53;0.57;;;15.80;73.50;;;;;;5053935;28;20032;-77
2022/07/17 00:04:31;;;;;;;5.03;0.55;;;15.80;73.60;;;;;;5059419;28;20493;-76
2022/07/17 00:06:57;;;;;;;3.05;0.82;;;15.80;74.00;;;;;;5060976;28;20039;-76
2022/07/17 00:09:22;;;;;;;3.67;1.10;;;15.80;74.60;;;;;;5067974;28;20032;-79
2022/07/17 00:11:48;;;;;;;4.20;0.75;;;15.70;74.90;;;;;;5067204;28;20036;-77
2022/07/17 00:14:13;;;;;;;2.45;0.57;;;15.60;75.40;;;;;;5066764;28;20462;-77
2022/07/17 00:16:39;;;;;;;2.88;0.68;;;15.60;75.70;;;;;;5052036;28;20040;-76
2022/07/17 00:19:04;;;;;;;2.80;0.70;;;15.60;75.70;;;;;;5049653;28;20134;-77
2022/07/17 00:21:30;;;;;;;3.25;0.52;;;15.60;75.80;;;;;;5060110;28;20060;-76
2022/07/17 00:23:55;;;;;;;2.30;0.63;;;15.60;75.90;;;;;;5064937;28;20040;-78
2022/07/17 00:26:21;;;;;;;5.32;1.35;;;15.60;75.80;;;;;;5062659;28;20040;-78
2022/07/17 00:28:47;;;;;;;2.25;0.82;;;15.60;76.10;;;;;;5061583;28;20033;-75
2022/07/17 00:31:12;;;;;;;2.60;0.77;;;15.60;76.40;;;;;;5065063;28;20040;-76
2022/07/17 00:33:38;;;;;;;3.92;0.82;;;15.60;76.30;;;;;;5064221;28;20029;-75
2022/07/17 00:36:04;;;;;;;2.50;0.77;;;15.60;76.30;;;;;;5056344;28;20033;-78
2022/07/17 00:38:29;;;;;;;4.32;0.68;;;15.60;76.30;;;;;;5051849;28;20155;-77
2022/07/17 00:40:56;;;;;;;5.13;0.80;;;15.60;76.60;;;;;;5069716;28;20056;-76
2022/07/17 00:43:22;;;;;;;2.17;0.88;;;15.60;76.50;;;;;;5038735;28;20128;-77
2022/07/17 00:45:59;;;;;;;2.72;0.68;;;15.60;76.70;;;;;;5052441;28;20033;-76
2022/07/17 00:48:25;;;;;;;4.47;1.35;;;15.50;77.20;;;;;;5051591;28;20032;-76
2022/07/17 00:50:50;;;;;;;2.55;0.75;;;15.50;77.00;;;;;;5068652;28;20032;-76
2022/07/17 00:53:16;;;;;;;4.25;0.73;;;15.50;77.60;;;;;;5067619;28;20032;-79
2022/07/17 00:55:41;;;;;;;3.35;1.17;;;15.40;77.60;;;;;;5066116;28;20036;-78
2022/07/17 00:58:08;;;;;;;1.85;0.50;;;15.40;77.80;;;;;;5065691;28;20040;-76
2022/07/17 01:00:34;;;;;;;1.95;0.63;;;15.40;78.00;;;;;;5033434;28;20538;-76
2022/07/17 01:03:01;;;;;;;3.92;0.55;;;15.30;78.30;;;;;;5071544;28;20136;-77
2022/07/17 01:05:26;;;;;;;2.15;0.60;;;15.30;79.10;;;;;;5070402;28;20024;-79
2022/07/17 01:07:52;;;;;;;2.03;0.63;;;15.20;79.00;;;;;;5059831;28;20029;-76
2022/07/17 01:10:19;;;;;;;4.47;1.00;;;15.20;79.10;;;;;;5070292;28;20070;-79
2022/07/17 01:12:47;;;;;;;3.60;0.90;;;15.20;79.60;;;;;;5071438;28;20032;-76
2022/07/17 01:15:15;;;;;;;8.63;1.05;;;15.20;79.70;;;;;;5062059;28;20025;-75
2022/07/17 01:17:41;;;;;;;3.75;0.95;;;15.10;80.00;;;;;;5052999;28;20036;-77
2022/07/17 01:20:08;;;;;;;3.28;0.90;;;15.10;79.90;;;;;;5048083;28;20393;-76
2022/07/17 01:23:00;;;;;;;5.00;1.05;;;15.00;79.90;;;;;;5052981;28;20109;-75
2022/07/17 01:25:26;;;;;;;3.65;0.57;;;15.00;80.30;;;;;;5058643;28;20059;-76
2022/07/17 01:27:52;;;;;;;4.03;0.70;;;15.00;80.70;;;;;;5059202;28;20033;-79
2022/07/17 01:30:17;;;;;;;3.10;0.77;;;14.90;80.90;;;;;;5050790;28;20028;-76
2022/07/17 01:32:43;;;;;;;2.45;0.93;;;14.90;80.30;;;;;;5049551;28;20382;-78
2022/07/17 01:35:11;;;;;;;3.33;1.15;;;14.80;80.60;;;;;;5063202;28;20096;-75
2022/07/17 01:37:39;;;;;;;5.63;0.95;;;14.80;80.50;;;;;;5053438;28;20120;-79
2022/07/17 01:40:05;;;;;;;2.88;0.55;;;14.80;80.40;;;;;;5045628;28;20112;-76
2022/07/17 01:42:31;;;;;;;4.20;1.00;;;14.70;80.80;;;;;;5052621;28;20036;-79
2022/07/17 01:44:57;;;;;;;1.63;0.60;;;14.70;81.60;;;;;;5069304;28;20104;-75
2022/07/17 01:47:23;;;;;;;4.75;1.13;;;14.60;81.50;;;;;;5068705;28;20048;-75
2022/07/17 01:49:51;;;;;;;3.60;0.80;;;14.60;81.90;;;;;;5055926;28;20037;-76
2022/07/17 01:52:16;;;;;;;5.22;0.50;;;14.60;82.50;;;;;;5063495;28;20631;-79
2022/07/17 01:54:42;;;;;;;2.10;1.05;;;14.50;82.40;;;;;;5070619;28;20032;-79
2022/07/17 01:57:09;;;;;;;2.47;0.65;;;14.50;82.90;;;;;;5041717;28;20179;-76
2022/07/17 01:59:35;;;;;;;2.67;0.80;;;14.50;83.40;;;;;;5062265;28;20036;-75
2022/07/17 02:02:01;;;;;;;2.85;0.60;;;14.50;83.50;;;;;;5058200;28;20021;-79
2022/07/17 02:04:27;;;;;;;2.20;0.77;;;14.40;84.20;;;;;;5061097;28;20032;-76
2022/07/17 02:06:54;;;;;;;3.65;0.60;;;14.40;84.10;;;;;;5070974;28;20024;-77
2022/07/17 02:09:21;;;;;;;3.53;0.70;;;14.30;84.20;;;;;;5047859;28;20043;-78
2022/07/17 02:11:47;;;;;;;4.35;0.70;;;14.30;84.40;;;;;;5066227;28;20037;-77
2022/07/17 02:14:12;;;;;;;2.05;0.68;;;14.30;84.90;;;;;;5067833;28;20760;-77
2022/07/17 02:16:38;;;;;;;8.20;0.70;;;14.20;85.10;;;;;;5061188;28;20116;-77
2022/07/17 02:19:03;;;;;;;2.60;0.75;;;14.20;85.30;;;;;;5059109;28;20181;-77
2022/07/17 02:21:29;;;;;;;2.63;0.65;;;14.20;85.40;;;;;;5069233;28;20452;-76
2022/07/17 02:23:55;;;;;;;4.15;0.88;;;14.20;85.40;;;;;;5070513;28;20112;-79
2022/07/17 02:26:20;;;;;;;1.60;0.65;;;14.10;85.70;;;;;;5048496;28;20439;-76
2022/07/17 02:28:46;;;;;;;3.88;0.75;;;14.10;86.40;;;;;;5052826;28;20139;-77
2022/07/17 02:31:11;;;;;;;5.80;0.82;;;14.10;86.40;;;;;;5056423;28;20138;-79
2022/07/17 02:33:37;;;;;;;4.20;0.80;;;14.00;86.90;;;;;;5071333;28;20474;-78
2022/07/17 02:36:02;;;;;;;5.18;0.70;;;14.00;87.20;;;;;;5059361;28;20036;-76
2022/07/17 02:38:28;;;;;;;2.38;0.65;;;14.00;87.60;;;;;;5043693;28;20367;-80
2022/07/17 02:40:54;;;;;;;1.20;0.75;;;14.00;87.90;;;;;;5083426;28;20119;-76
2022/07/17 02:43:19;;;;;;;3.90;0.65;;;14.00;88.20;;;;;;5054235;28;20033;-76
2022/07/17 02:45:45;;;;;;;2.00;0.85;;;13.90;88.30;;;;;;5064649;28;20221;-79
2022/07/17 02:48:10;;;;;;;2.38;0.82;;;13.90;88.80;;;;;;5053983;28;20406;-75
2022/07/17 02:50:36;;;;;;;2.10;0.85;;;13.90;89.20;;;;;;5050870;28;20032;-80
2022/07/17 02:53:02;;;;;;;2.13;0.98;;;13.80;89.40;;;;;;5052764;28;20402;-78
2022/07/17 02:55:27;;;;;;;4.82;1.02;;;13.80;89.80;;;;;;5065370;28;20121;-78
2022/07/17 02:57:53;;;;;;;1.83;0.70;;;13.70;90.00;;;;;;5054069;28;20029;-77
2022/07/17 03:00:20;;;;;;;4.38;1.13;;;13.70;90.20;;;;;;5058555;28;20592;-78
2022/07/17 03:02:46;;;;;;;4.15;0.93;;;13.70;90.30;;;;;;5074287;28;20050;-78
2022/07/17 03:05:13;;;;;;;3.72;1.05;;;13.70;90.50;;;;;;5067894;28;20037;-78
2022/07/17 03:07:39;;;;;;;2.00;1.00;;;13.60;90.60;;;;;;5069195;28;20059;-77
2022/07/17 03:10:05;;;;;;;2.63;0.95;;;13.60;90.50;;;;;;5045538;28;20398;-77
2022/07/17 03:12:30;;;;;;;4.82;0.80;;;13.60;90.70;;;;;;5069810;28;20382;-76
2022/07/17 03:14:56;;;;;;;4.22;1.10;;;13.50;90.90;;;;;;5045930;28;20039;-76
2022/07/17 03:17:21;;;;;;;4.75;1.00;;;13.50;91.10;;;;;;5068342;28;20481;-78
2022/07/17 03:19:47;;;;;;;6.43;1.17;;;13.50;91.20;;;;;;5069312;28;20044;-77
2022/07/17 03:22:12;;;;;;;4.72;1.65;;;13.50;91.20;;;;;;5050451;28;20036;-76
2022/07/17 03:24:38;;;;;;;3.63;1.40;;;13.50;91.30;;;;;;5074963;28;20084;-76
2022/07/17 03:27:03;;;;;;;4.60;1.00;;;13.50;91.30;;;;;;5067787;28;20036;-78
2022/07/17 03:29:29;;;;;;;6.03;1.30;;;13.50;91.40;;;;;;5060077;28;20033;-79
2022/07/17 03:31:54;;;;;;;3.60;1.25;;;13.40;91.50;;;;;;5050854;28;20388;-79
2022/07/17 03:34:20;;;;;;;6.22;1.30;;;13.40;91.60;;;;;;5063508;28;20523;-76
2022/07/17 03:36:46;;;;;;;3.47;1.45;;;13.40;91.70;;;;;;5064651;28;20029;-76
2022/07/17 03:39:12;;;;;;;4.57;1.55;;;13.40;91.70;;;;;;5057611;28;20028;-79
2022/07/17 03:41:37;;;;;;;2.38;1.23;;;13.40;91.70;;;;;;5062566;28;20033;-76
2022/07/17 03:44:03;;;;;;;2.47;0.98;;;13.40;91.80;;;;;;5038196;28;20036;-76
2022/07/17 03:46:28;;;;;;;1.38;0.65;;;13.50;91.90;;;;;;5053558;28;20534;-79
2022/07/17 03:48:54;;;;;;;5.65;1.20;;;13.50;91.80;;;;;;5077275;28;20025;-76
2022/07/17 03:51:19;;;;;;;7.72;1.10;;;13.50;92.00;;;;;;5046481;28;20393;-78
2022/07/17 03:53:45;;;;;;;6.70;1.02;;;13.50;92.40;;;;;;5071620;28;20121;-75
2022/07/17 03:56:12;;;;;;;4.47;1.40;;;13.50;92.10;;;;;;5040411;28;20505;-79
2022/07/17 03:58:37;;;;;;;3.15;1.13;;;13.50;91.90;;;;;;5065587;28;20367;-76
2022/07/17 04:01:03;;;;;;;2.55;1.00;;;13.60;92.00;;;;;;5065299;28;20077;-77
2022/07/17 04:03:29;;;;;;;5.07;1.20;;;13.60;92.10;;;;;;5049672;28;20031;-76
2022/07/17 04:05:54;;;;;;;3.65;1.08;;;13.50;92.00;;;;;;5067186;28;20025;-79
2022/07/17 04:08:20;;;;;;;3.20;1.35;;;13.60;92.10;;;;;;5071877;28;20033;-76
2022/07/17 04:10:46;;;;;;;3.03;1.15;;;13.60;92.20;;;;;;5065558;28;20929;-79
2022/07/17 04:13:11;;;;;;;3.35;0.80;;;13.60;92.30;;;;;;5049454;28;20033;-76
2022/07/17 04:15:49;;;;;;;4.28;1.13;;;13.60;92.30;;;;;;5031371;28;20395;-76
2022/07/17 04:18:23;;;;;;;2.75;1.00;;;13.70;92.40;;;;;;5045745;28;20028;-75
2022/07/17 04:20:50;;;;;;;8.95;1.50;;;13.70;92.30;;;;;;5085022;28;20035;-76
2022/07/17 04:23:15;;;;;;;2.70;1.27;;;13.70;92.50;;;;;;5067784;28;20036;-76
2022/07/17 04:25:41;;;;;;;4.30;1.33;;;13.70;92.50;;;;;;5049152;28;20035;-78
2022/07/17 04:28:08;;;;;;;2.65;1.27;;;13.80;92.50;;;;;;5059801;28;20029;-76
2022/07/17 04:30:34;;;;;;;3.95;1.38;;;13.80;92.40;;;;;;5052520;28;20036;-76
2022/07/17 04:32:59;;;;;;;2.58;1.10;;;13.80;92.40;;;;;;5045195;28;20059;-78
2022/07/17 04:35:26;;;;;;;5.45;1.30;;;13.90;92.50;;;;;;5044243;28;20036;-76
2022/07/17 04:37:51;;;;;;;4.72;1.08;;;13.90;92.40;;;;;;5065034;28;20505;-76
2022/07/17 04:40:17;;;;;;;2.75;1.27;;;13.90;92.20;;;;;;5054809;28;20115;-76
2022/07/17 04:42:43;;;;;;;9.73;1.67;;;14.00;92.10;;;;;;5070783;28;20033;-76
2022/07/17 04:45:09;;;;;;;3.03;1.10;;;14.10;92.00;;;;;;5052300;28;20055;-76
2022/07/17 04:47:35;;;;;;;3.65;0.90;;;14.10;91.90;;;;;;5070247;28;20048;-77
2022/07/17 04:50:01;;;;;;;4.35;1.42;;;14.10;91.60;;;;;;5072068;28;20039;-77
2022/07/17 04:52:26;;;;;;;7.22;1.30;;;14.10;91.60;;;;;;5070372;28;20048;-79
2022/07/17 04:54:52;;;;;;;2.97;1.08;;;14.20;91.50;;;;;;5069599;28;20043;-76
2022/07/17 04:57:17;;;;;;;6.57;1.27;;;14.20;91.30;;;;;;5067096;28;20074;-78
2022/07/17 04:59:43;;;;;;;4.95;1.50;;;14.20;91.50;;;;;;5053932;28;20127;-76
2022/07/17 05:02:08;;;;;;;4.03;1.17;;;14.30;91.30;;;;;;5072920;28;20051;-76
2022/07/17 05:04:35;;;;;;;3.95;1.00;;;14.40;91.20;;;;;;5051729;28;20039;-79
2022/07/17 05:07:01;;;;;;;4.13;1.05;;;14.40;90.90;;;;;;5071647;28;20024;-79
2022/07/17 05:09:26;;;;;;;3.10;1.20;;;14.50;90.90;;;;;;5072831;28;20418;-78
2022/07/17 05:11:52;;;;;;;3.22;1.00;;;14.50;90.90;;;;;;5068949;28;20067;-77
2022/07/17 05:14:18;;;;;;;3.55;1.63;;;14.50;90.60;;;;;;5069136;28;20024;-77
2022/07/17 05:16:43;;;;;;;2.08;1.02;;;14.60;90.80;;;;;;5069506;28;20044;-78
2022/07/17 05:19:09;;;;;;;2.70;1.30;;;14.70;90.90;;;;;;5067492;28;20443;-77
2022/07/17 05:21:34;;;;;;;2.10;0.98;;;14.70;90.60;;;;;;5064573;28;20033;-77
2022/07/17 05:24:00;;;;;;;2.95;0.93;;;14.70;90.60;;;;;;5071238;28;20025;-78
2022/07/17 05:26:26;;;;;;;7.00;1.27;;;14.80;90.60;;;;;;5048875;28;20519;-76
2022/07/17 05:28:51;;;;;;;5.05;1.10;;;14.90;90.50;;;;;;5072346;28;20398;-78
2022/07/17 05:31:17;;;;;;;2.75;1.17;;;14.90;90.20;;;;;;5072592;28;20033;-76
2022/07/17 05:33:43;;;;;;;3.35;1.30;;;15.00;90.20;;;;;;5067876;28;20029;-79
2022/07/17 05:36:08;;;;;;;1.75;0.82;;;15.00;90.20;;;;;;5069683;28;20149;-76
2022/07/17 05:38:34;;;;;;;6.93;1.08;;;15.10;89.90;;;;;;5044925;28;20044;-79
2022/07/17 05:41:00;;;;;;;3.67;1.33;;;15.10;89.70;;;;;;5066460;28;20052;-79
2022/07/17 05:43:25;;;;;;;3.00;0.82;;;15.20;89.90;;;;;;5064673;28;20040;-76
2022/07/17 05:45:54;;;;;;;2.35;0.85;;;15.20;89.80;;;;;;5063820;28;20036;-77
2022/07/17 05:48:20;;;;;;;3.08;0.70;;;15.30;90.00;;;;;;5068316;28;20035;-76
2022/07/17 05:50:46;;;;;;;3.00;0.80;;;15.40;88.90;;;;;;5049338;28;20043;-76
2022/07/17 05:53:11;;;;;;;1.73;0.80;;;15.40;88.20;;;;;;5069263;28;20119;-76
2022/07/17 05:55:37;;;;;;;4.55;0.85;;;15.60;88.30;;;;;;5077630;28;20043;-79
2022/07/17 05:58:03;;;;;;;2.50;0.60;;;15.60;87.80;;;;;;5094007;28;20032;-80
2022/07/17 06:00:29;;;;;;;3.92;0.80;;;15.70;87.90;;;;;;5055605;28;20518;-77
2022/07/17 06:02:55;;;;;;;2.05;0.63;;;15.80;87.40;;;;;;5055835;28;20020;-76
2022/07/17 06:05:20;;;;;;;2.58;0.70;;;15.90;86.90;;;;;;5069956;28;20036;-76
2022/07/17 06:07:46;;;;;;;3.28;0.80;;;15.90;87.10;;;;;;5070696;28;20032;-81
2022/07/17 06:10:11;;;;;;;4.20;0.82;;;16.00;86.90;;;;;;5053043;28;20067;-77
2022/07/17 06:12:37;;;;;;;3.97;2.13;;;16.10;86.50;;;;;;5049239;28;20719;-76
2022/07/17 06:15:03;;;;;;;3.55;0.75;;;16.20;85.60;;;;;;5060069;28;20039;-76
2022/07/17 06:17:28;;;;;;;3.33;0.77;;;16.20;85.80;;;;;;5070133;28;20067;-79
2022/07/17 06:19:54;;;;;;;1.88;0.60;;;16.20;85.50;;;;;;5068853;28;20056;-77
2022/07/17 06:22:20;;;;;;;2.00;0.77;;;16.30;85.40;;;;;;5065093;28;20041;-78
2022/07/17 06:24:46;;;;;;;3.35;0.77;;;16.40;85.30;;;;;;5043406;28;20064;-79
2022/07/17 06:27:12;;;;;;;4.97;0.80;;;16.40;84.30;;;;;;5065874;28;20043;-80
2022/07/17 06:29:38;;;;;;;3.17;0.80;;;16.50;85.00;;;;;;5050755;28;20024;-77
2022/07/17 06:32:03;;;;;;;9.60;1.42;;;16.60;84.60;;;;;;5068664;28;20040;-78
2022/07/17 06:34:29;;;;;;;5.25;0.70;;;16.70;83.80;;;;;;5062437;28;20059;-77
2022/07/17 06:36:55;;;;;;;4.03;0.73;;;16.70;83.50;;;;;;5067935;28;20060;-80
2022/07/17 06:39:21;;;;;;;1.50;0.60;;;16.70;84.30;;;;;;5063074;28;20032;-80
2022/07/17 06:41:46;;;;;;;2.13;0.70;;;16.80;85.00;;;;;;5058004;28;20139;-80
2022/07/17 06:44:12;;;;;;;6.07;1.05;;;17.00;83.80;;;;;;5066864;28;20035;-81
2022/07/17 06:46:37;;;;;;;3.42;0.90;;;17.10;83.10;;;;;;5063843;28;20055;-77
2022/07/17 06:49:03;;;;;;;1.30;0.60;;;17.20;82.90;;;;;;5060446;28;20112;-80
2022/07/17 06:51:28;;;;;;;3.28;0.63;;;17.30;82.20;;;;;;5054506;28;20405;-77
2022/07/17 06:53:54;;;;;;;1.60;0.40;;;17.40;82.30;;;;;;5058585;28;20028;-77
2022/07/17 06:56:19;;;;;;;2.60;0.55;;;17.60;81.30;;;;;;5068536;28;20047;-77
2022/07/17 06:58:45;;;;;;;4.65;0.70;;;17.70;80.70;;;;;;5045925;28;20021;-79
2022/07/17 07:01:10;;;;;;;3.35;0.70;;;17.70;80.70;;;;;;5067900;28;20429;-77
2022/07/17 07:03:36;;;;;;;4.05;0.65;;;17.70;80.40;;;;;;5042716;28;20032;-77
2022/07/17 07:06:01;;;;;;;3.10;0.63;;;17.80;80.20;;;;;;5059671;28;20061;-76
2022/07/17 07:08:27;;;;;;;7.10;0.75;;;17.90;79.90;;;;;;5074451;28;20057;-80
2022/07/17 07:10:52;;;;;;;4.85;0.60;;;18.00;80.30;;;;;;5044033;28;20044;-81
2022/07/17 07:13:18;;;;;;;8.13;1.05;;;18.20;80.60;;;;;;5064855;28;20103;-81
2022/07/17 07:15:44;;;;;;;1.70;1.02;;;18.40;82.50;;;;;;5043233;28;20043;-78
2022/07/17 07:18:09;;;;;;;2.05;0.70;;;18.50;80.40;;;;;;5068965;28;20039;-78
2022/07/17 07:20:35;;;;;;;2.67;0.60;;;18.60;78.80;;;;;;5050560;28;20024;-83
2022/07/17 07:23:00;;;;;;;4.05;0.63;;;18.70;78.10;;;;;;5065239;28;20430;-77
2022/07/17 07:25:26;;;;;;;2.40;0.68;;;18.80;78.30;;;;;;5068055;28;20119;-81
2022/07/17 07:27:52;;;;;;;4.03;0.63;;;18.90;77.40;;;;;;5060857;28;20372;-82
2022/07/17 07:30:17;;;;;;;3.08;0.70;;;19.00;77.40;;;;;;5053419;28;20029;-77
2022/07/17 07:32:43;;;;;;;2.92;0.55;;;19.10;76.80;;;;;;5069980;28;20097;-77
2022/07/17 07:35:09;;;;;;;1.58;0.57;;;19.10;75.70;;;;;;5069752;28;20040;-80
2022/07/17 07:37:35;;;;;;;2.63;0.70;;;19.20;76.00;;;;;;5055806;28;20389;-79
2022/07/17 07:40:02;;;;;;;3.28;0.68;;;19.20;76.30;;;;;;5056429;28;20108;-77
2022/07/17 07:42:27;;;;;;;3.92;0.80;;;19.20;76.40;;;;;;5050018;28;20028;-78
2022/07/17 07:44:53;;;;;;;4.35;0.90;;;19.30;76.50;;;;;;5080690;28;20035;-80
2022/07/17 07:47:18;;;;;;;3.90;1.02;;;19.40;75.90;;;;;;5070125;28;20106;-80
2022/07/17 07:49:44;;;;;;;7.20;1.05;;;19.60;76.10;;;;;;5048999;28;20029;-80
2022/07/17 07:52:09;;;;;;;2.80;0.65;;;19.80;74.90;;;;;;5081752;28;20154;-81
2022/07/17 07:54:35;;;;;;;4.40;0.55;;;19.80;75.50;;;;;;5068232;28;20024;-80
2022/07/17 07:57:01;;;;;;;5.25;1.02;;;20.00;74.30;;;;;;5066341;28;20027;-86
2022/07/17 07:59:28;;;;;;;2.10;0.63;;;20.10;73.60;;;;;;5063015;28;20032;-80
2022/07/17 08:01:53;;;;;;;2.17;0.60;;;20.10;73.30;;;;;;5068407;28;20032;-85
2022/07/17 08:04:19;;;;;;;5.88;0.60;;;20.20;75.40;;;;;;5046608;28;20032;-81
2022/07/17 08:06:44;;;;;;;3.08;0.73;;;20.40;72.90;;;;;;5046563;28;20061;-82
2022/07/17 08:09:10;;;;;;;4.70;0.60;;;20.40;73.20;;;;;;5047993;28;20479;-80
2022/07/17 08:11:35;;;;;;;4.47;0.77;;;20.50;71.60;;;;;;5062735;28;20037;-81
2022/07/17 08:14:01;;;;;;;2.72;0.60;;;20.50;72.30;;;;;;5079973;28;20440;-81
2022/07/17 08:16:27;;;;;;;3.92;0.80;;;20.50;71.90;;;;;;5072805;28;20064;-82
2022/07/17 08:18:52;;;;;;;6.53;0.70;;;20.70;72.10;;;;;;5062619;28;20070;-82
2022/07/17 08:21:18;;;;;;;6.55;1.15;;;20.80;71.90;;;;;;5072454;28;20032;-84
2022/07/17 08:23:43;;;;;;;5.90;0.55;;;20.80;71.00;;;;;;5063035;28;20454;-80
2022/07/17 08:26:09;;;;;;;4.47;0.55;;;20.90;72.50;;;;;;5061394;28;20028;-79
2022/07/17 08:28:34;;;;;;;4.03;1.13;;;20.90;71.60;;;;;;5066964;28;20039;-80
2022/07/17 08:31:00;;;;;;;3.05;0.80;;;21.00;70.30;;;;;;5085316;28;20032;-80
2022/07/17 08:33:26;;;;;;;2.05;0.47;;;21.10;70.30;;;;;;5068493;28;20128;-78
2022/07/17 08:35:51;;;;;;;3.20;0.70;;;21.10;69.10;;;;;;5069177;28;20025;-80
2022/07/17 08:38:17;;;;;;;4.38;1.10;;;21.20;70.30;;;;;;5072783;28;20090;-81
2022/07/17 08:40:43;;;;;;;2.60;0.60;;;21.40;68.90;;;;;;5054990;28;20025;-84
2022/07/17 08:43:10;;;;;;;3.17;0.88;;;21.50;69.30;;;;;;5055484;28;20025;-79
2022/07/17 08:45:38;;;;;;;2.05;0.60;;;21.50;69.10;;;;;;5072692;28;20051;-79
2022/07/17 08:48:06;;;;;;;2.53;0.70;;;21.70;67.30;;;;;;5055379;28;20077;-81
2022/07/17 08:50:34;;;;;;;2.05;0.47;;;21.80;69.40;;;;;;5054933;28;20036;-80
2022/07/17 08:53:00;;;;;;;3.08;0.68;;;21.90;71.30;;;;;;5054809;28;20029;-79
2022/07/17 08:55:26;;;;;;;1.77;0.50;;;22.00;66.50;;;;;;5072453;28;20032;-82
2022/07/17 08:57:52;;;;;;;5.40;0.98;;;22.00;66.70;;;;;;5073510;28;20386;-80
2022/07/17 09:00:20;;;;;;;1.90;0.47;;;21.90;66.00;;;;;;5055076;28;20105;-81
2022/07/17 09:03:04;;;;;;;2.55;0.80;;;21.90;66.20;;;;;;5054396;28;20025;-81
2022/07/17 09:05:32;;;;;;;3.35;0.60;;;21.80;66.30;;;;;;5072212;28;20433;-84
2022/07/17 09:07:58;;;;;;;4.05;0.80;;;21.80;64.60;;;;;;5054643;28;20032;-81
2022/07/17 09:10:42;;;;;;;6.82;0.82;;;21.90;65.40;;;;;;5054546;28;20528;-81
2022/07/17 09:13:23;;;;;;;3.28;0.52;;;22.00;66.60;;;;;;5072757;28;20111;-82
2022/07/17 09:15:51;;;;;;;4.95;0.63;;;22.00;65.50;;;;;;5054027;28;20064;-86
2022/07/17 09:18:17;;;;;;;2.05;0.40;;;22.00;65.60;;;;;;5072598;28;20034;-81
2022/07/17 09:20:51;;;;;;;5.95;1.30;;;22.00;66.80;;;;;;5072480;28;20025;-86
2022/07/17 09:23:19;;;;;;;2.22;0.60;;;22.10;66.90;;;;;;5070945;28;20020;-82
2022/07/17 09:25:47;;;;;;;2.28;0.50;;;22.20;67.70;;;;;;5071718;28;20642;-83
2022/07/17 09:28:14;;;;;;;1.60;0.77;;;22.40;63.80;;;;;;5072760;28;20119;-83
2022/07/17 09:30:43;;;;;;;1.98;0.70;;;22.60;63.80;;;;;;5054443;28;20028;-82
2022/07/17 09:33:19;;;;;;;2.72;0.60;;;22.80;63.20;;;;;;5072464;28;20025;-83
2022/07/17 09:35:50;;;;;;;4.35;0.80;;;23.00;65.00;;;;;;5053776;28;20090;-81
2022/07/17 09:38:31;;;;;;;2.05;0.52;;;23.10;64.70;;;;;;5054092;28;20024;-80
2022/07/17 09:41:09;;;;;;;2.07;0.70;;;23.20;63.80;;;;;;5072024;28;20037;-85
2022/07/17 09:43:39;;;;;;;2.95;0.73;;;23.40;63.20;;;;;;5072379;28;20032;-84
2022/07/17 09:46:07;;;;;;;2.72;0.70;;;23.40;62.30;;;;;;5053663;28;20537;-84
2022/07/17 09:48:33;;;;;;;2.88;0.68;;;23.40;62.20;;;;;;5054411;28;20032;-79
2022/07/17 09:50:59;;;;;;;4.53;0.68;;;23.50;60.30;;;;;;5053921;28;20029;-84
2022/07/17 09:53:25;;;;;;;2.72;0.77;;;23.30;60.70;;;;;;5071689;28;20035;-82
2022/07/17 09:55:56;;;;;;;4.60;0.65;;;23.40;65.90;;;;;;5053342;28;20116;-84
2022/07/17 09:58:23;;;;;;;2.83;0.70;;;23.60;63.00;;;;;;5053885;28;20074;-82
2022/07/17 10:00:50;;;;;;;5.15;0.60;;;23.90;61.50;;;;;;5071999;28;20064;-84
2022/07/17 10:03:19;;;;;;;4.80;0.50;;;24.20;61.30;;;;;;5071818;28;20032;-80
2022/07/17 10:05:45;;;;;;;3.97;0.90;;;24.30;58.80;;;;;;5053347;28;20479;-84
2022/07/17 10:08:11;;;;;;;3.28;0.60;;;24.50;58.90;;;;;;5071220;28;20037;-81
2022/07/17 10:10:37;;;;;;;2.42;0.50;;;24.70;57.20;;;;;;5071692;28;20101;-82
2022/07/17 10:13:02;;;;;;;3.53;0.50;;;24.70;56.90;;;;;;5053575;28;20441;-82
2022/07/17 10:15:28;;;;;;;2.05;0.50;;;24.70;56.30;;;;;;5053268;28;20078;-80
2022/07/17 10:18:05;;;;;;;3.22;0.63;;;24.50;57.30;;;;;;5072494;28;20067;-82
2022/07/17 10:20:30;;;;;;;2.88;0.50;;;24.60;59.00;;;;;;5053445;28;20036;-84
2022/07/17 10:22:56;;;;;;;2.40;0.50;;;24.60;58.60;;;;;;5053374;28;20032;-80
2022/07/17 10:25:21;;;;;;;1.80;0.32;;;24.60;58.10;;;;;;5071000;28;20032;-80
2022/07/17 10:27:55;;;;;;;2.95;0.68;;;24.70;57.00;;;;;;5053524;28;20056;-82
2022/07/17 10:30:27;;;;;;;4.18;0.50;;;24.70;58.70;;;;;;5053171;28;20090;-82
2022/07/17 10:32:58;;;;;;;2.17;0.73;;;25.00;56.80;;;;;;5053138;28;20053;-81
2022/07/17 10:35:25;;;;;;;3.72;0.55;;;25.20;58.90;;;;;;5070643;28;20090;-81
2022/07/17 10:37:51;;;;;;;4.68;1.08;;;25.30;57.00;;;;;;5071023;28;20036;-82
2022/07/17 10:40:27;;;;;;;1.17;0.50;;;25.50;57.80;;;;;;5071176;28;20120;-83
2022/07/17 10:43:04;;;;;;;3.75;0.63;;;25.70;59.00;;;;;;5052939;28;20115;-84
2022/07/17 10:45:35;;;;;;;6.53;0.52;;;25.90;54.60;;;;;;5070271;28;20024;-82
2022/07/17 10:48:09;;;;;;;1.20;0.40;;;25.80;55.00;;;;;;5053729;28;20045;-81
2022/07/17 10:50:57;;;;;;;1.98;0.50;;;25.80;54.70;;;;;;5053479;28;20060;-80
2022/07/17 10:53:26;;;;;;;1.55;0.45;;;25.70;53.70;;;;;;5056186;28;20135;-80
2022/07/17 10:55:54;;;;;;;3.13;0.45;;;25.60;54.40;;;;;;5058177;28;20032;-80
2022/07/17 10:58:25;;;;;;;5.75;0.60;;;25.40;55.30;;;;;;5058090;28;20024;-81
2022/07/17 11:00:58;;;;;;;1.57;0.50;;;25.40;55.80;;;;;;5060230;28;20052;-82
2022/07/17 11:03:24;;;;;;;4.00;0.50;;;25.50;56.50;;;;;;5053515;28;20024;-83
2022/07/17 11:05:49;;;;;;;2.35;0.57;;;25.70;55.40;;;;;;5052539;28;20025;-80
2022/07/17 11:08:15;;;;;;;3.83;0.57;;;25.90;54.50;;;;;;5070836;28;20463;-80
2022/07/17 11:10:40;;;;;;;3.10;0.73;;;26.00;54.50;;;;;;5070344;28;20135;-81
2022/07/17 11:13:18;;;;;;;1.75;0.75;;;26.20;55.50;;;;;;5052533;28;20429;-80
2022/07/17 11:15:46;;;;;;;2.95;0.57;;;26.50;56.20;;;;;;5052050;28;20032;-84
2022/07/17 11:18:18;;;;;;;3.60;0.80;;;26.60;54.30;;;;;;5052687;28;20051;-82
2022/07/17 11:21:13;;;;;;;3.78;0.80;;;26.60;54.60;;;;;;5070981;28;20382;-81
2022/07/17 11:23:54;;;;;;;3.13;0.70;;;26.90;54.00;;;;;;5086218;28;20044;-83
2022/07/17 11:26:20;;;;;;;3.25;0.40;;;27.10;52.60;;;;;;5069471;28;20467;-83
2022/07/17 11:28:47;;;;;;;3.05;0.45;;;27.20;52.60;;;;;;5052412;28;20052;-83
2022/07/17 11:31:19;;;;;;;7.75;0.60;;;27.40;52.40;;;;;;5051742;28;20550;-81
2022/07/17 11:33:53;;;;;;;2.13;0.60;;;27.50;52.10;;;;;;5070308;28;20024;-82
2022/07/17 11:36:27;;;;;;;2.00;0.60;;;27.50;49.30;;;;;;5051747;28;20699;-81
2022/07/17 11:38:55;;;;;;;1.30;0.38;;;27.30;50.10;;;;;;5051798;28;20024;-83
2022/07/17 11:41:21;;;;;;;3.90;0.90;;;27.20;51.10;;;;;;5069909;28;20063;-80
2022/07/17 11:43:47;;;;;;;1.58;0.30;;;27.00;51.20;;;;;;5070239;28;20430;-82
2022/07/17 11:46:14;;;;;;;3.45;0.73;;;27.00;51.20;;;;;;5068684;28;20028;-83
2022/07/17 11:48:41;;;;;;;2.67;0.50;;;27.00;50.40;;;;;;5052751;28;20115;-84
2022/07/17 11:51:07;;;;;;;4.13;0.60;;;27.00;49.70;;;;;;5069814;28;20086;-82
2022/07/17 11:53:38;;;;;;;2.70;0.50;;;26.80;50.20;;;;;;5052335;28;20487;-80
2022/07/17 11:56:04;;;;;;;3.58;0.40;;;26.60;50.90;;;;;;5070179;28;20055;-81
2022/07/17 11:58:47;;;;;;;1.67;0.30;;;26.60;48.30;;;;;;5069899;28;20487;-82
2022/07/17 12:01:13;;;;;;;3.85;1.23;;;26.50;49.70;;;;;;5052148;28;20078;-82
2022/07/17 12:03:39;;;;;;;3.38;0.65;;;26.50;49.80;;;;;;5070401;28;20138;-83
2022/07/17 12:06:05;;;;;;;4.63;0.50;;;26.40;50.40;;;;;;5051470;28;20033;-82
2022/07/17 12:08:31;;;;;;;2.13;0.68;;;26.10;50.70;;;;;;5052311;28;20032;-83
2022/07/17 12:11:05;;;;;;;1.70;0.40;;;26.10;50.40;;;;;;5070442;28;20127;-81
2022/07/17 12:13:42;;;;;;;6.40;0.63;;;26.10;52.50;;;;;;5052061;28;20116;-83
2022/07/17 12:16:28;;;;;;;2.50;0.75;;;26.20;50.90;;;;;;5051366;28;20035;-81
2022/07/17 12:19:14;;;;;;;3.03;0.60;;;26.30;51.40;;;;;;5052085;28;20070;-79
2022/07/17 12:21:46;;;;;;;3.35;0.65;;;26.40;49.80;;;;;;5051814;28;20120;-82
2022/07/17 12:24:22;;;;;;;2.90;0.38;;;26.30;48.10;;;;;;5069949;28;20028;-80
2022/07/17 12:26:48;;;;;;;4.18;0.50;;;26.20;50.50;;;;;;5051291;28;20120;-81
2022/07/17 12:29:14;;;;;;;2.63;0.80;;;26.10;49.60;;;;;;5051462;28;20033;-79
2022/07/17 12:31:40;;;;;;;2.30;0.50;;;26.20;50.60;;;;;;5069511;28;20028;-80
2022/07/17 12:34:06;;;;;;;1.65;0.60;;;26.40;49.40;;;;;;5069868;28;20089;-83
2022/07/17 12:36:32;;;;;;;5.63;0.50;;;26.50;49.20;;;;;;5050610;28;20033;-81
2022/07/17 12:38:57;;;;;;;2.22;0.65;;;26.50;48.40;;;;;;5051756;28;20021;-82
2022/07/17 12:41:23;;;;;;;2.65;0.50;;;26.60;49.70;;;;;;5051036;28;20037;-85
2022/07/17 12:43:48;;;;;;;2.08;0.40;;;26.80;49.10;;;;;;5051733;28;20124;-83
2022/07/17 12:46:14;;;;;;;3.67;0.52;;;26.90;48.00;;;;;;5069051;28;20041;-81
2022/07/17 12:48:41;;;;;;;2.20;0.30;;;26.90;47.70;;;;;;5051819;28;20028;-82